Time;durP1;ratioP1;P1;durP2;ratioP2;P2;SDS_P1;SDS_P2;PMS_P1;PMS_P2;Temp;Humidity;BMP_temperature;BMP_pressure;BME280_temperature;BME280_humidity;BME280_pressure;Samples;Min_cycle;Max_cycle;Signal;HPM_P1;HPM_P2
2022/09/21 00:02:05;;;;;;;4.13;2.75;;;11.80;99.90;;;;;;4992712;28;20382;-76
2022/09/21 00:04:30;;;;;;;5.53;2.38;;;11.80;99.90;;;;;;4994236;28;20034;-76
2022/09/21 00:06:56;;;;;;;3.95;2.47;;;11.80;99.90;;;;;;4993944;28;20034;-76
2022/09/21 00:09:22;;;;;;;3.90;2.20;;;11.80;99.90;;;;;;4976941;28;20390;-77
2022/09/21 00:11:47;;;;;;;4.28;2.05;;;11.80;99.90;;;;;;4976407;28;20069;-76
2022/09/21 00:14:13;;;;;;;3.78;2.30;;;11.80;99.90;;;;;;4995002;28;20054;-76
2022/09/21 00:16:41;;;;;;;3.58;2.50;;;11.80;99.90;;;;;;4993868;28;20026;-76
2022/09/21 00:19:07;;;;;;;4.50;2.50;;;11.80;99.90;;;;;;4995397;28;20046;-76
2022/09/21 00:21:33;;;;;;;3.38;2.42;;;11.80;99.90;;;;;;4975974;28;20034;-76
2022/09/21 00:24:01;;;;;;;3.60;2.42;;;11.80;99.90;;;;;;4994518;28;20125;-76
2022/09/21 00:26:27;;;;;;;5.07;2.58;;;11.80;99.90;;;;;;4994233;28;20042;-76
2022/09/21 00:28:58;;;;;;;3.88;2.20;;;11.80;99.90;;;;;;4996557;28;20078;-76
2022/09/21 00:31:25;;;;;;;4.95;2.88;;;11.80;99.90;;;;;;4996105;28;20070;-76
2022/09/21 00:33:51;;;;;;;3.50;2.53;;;11.80;99.90;;;;;;4995518;28;20030;-76
2022/09/21 00:36:19;;;;;;;3.83;2.60;;;11.80;99.90;;;;;;4976756;28;20603;-76
2022/09/21 00:38:50;;;;;;;4.30;2.85;;;11.80;99.90;;;;;;4993142;28;20041;-76
2022/09/21 00:41:16;;;;;;;5.00;2.80;;;11.80;99.90;;;;;;4993343;28;20097;-76
2022/09/21 00:43:47;;;;;;;3.95;2.60;;;11.80;99.90;;;;;;4994079;28;20038;-76
2022/09/21 00:46:22;;;;;;;4.20;2.78;;;11.80;99.90;;;;;;4992392;28;20030;-76
2022/09/21 00:48:48;;;;;;;5.00;3.30;;;11.80;99.90;;;;;;4992517;28;20034;-76
2022/09/21 00:51:14;;;;;;;5.03;3.10;;;11.80;99.90;;;;;;4993099;28;20032;-77
2022/09/21 00:53:40;;;;;;;5.63;2.58;;;11.80;99.90;;;;;;4993831;28;20026;-77
2022/09/21 00:56:07;;;;;;;5.90;3.00;;;11.80;99.90;;;;;;4976988;28;20429;-77
2022/09/21 00:58:39;;;;;;;4.13;2.50;;;11.80;99.90;;;;;;4993580;28;20039;-77
2022/09/21 01:01:05;;;;;;;4.47;2.50;;;11.80;99.90;;;;;;4993955;28;20030;-77
2022/09/21 01:03:32;;;;;;;7.55;3.00;;;11.80;99.90;;;;;;4993562;28;20046;-77
2022/09/21 01:05:58;;;;;;;4.32;2.50;;;11.70;99.90;;;;;;4983859;28;20117;-77
2022/09/21 01:08:25;;;;;;;4.50;2.72;;;11.80;99.90;;;;;;4994532;28;20069;-77
2022/09/21 01:11:18;;;;;;;5.40;2.55;;;11.80;99.90;;;;;;4975523;28;20081;-77
2022/09/21 01:14:08;;;;;;;4.13;2.78;;;11.80;99.90;;;;;;4978014;28;20037;-77
2022/09/21 01:17:02;;;;;;;5.47;2.45;;;11.80;99.90;;;;;;4993838;28;20429;-77
2022/09/21 01:19:44;;;;;;;6.00;2.38;;;11.70;99.90;;;;;;4992874;28;20042;-76
2022/09/21 01:22:40;;;;;;;4.30;2.63;;;11.70;99.90;;;;;;4990694;28;20099;-77
2022/09/21 01:25:37;;;;;;;4.22;2.35;;;11.80;99.90;;;;;;4987562;28;20030;-77
2022/09/21 01:28:22;;;;;;;4.03;2.53;;;11.70;99.90;;;;;;4992850;28;20046;-76
2022/09/21 01:30:52;;;;;;;5.10;3.00;;;11.70;99.90;;;;;;4993398;28;20030;-77
2022/09/21 01:33:31;;;;;;;4.50;2.45;;;11.70;99.90;;;;;;4993572;28;20057;-76
2022/09/21 01:36:03;;;;;;;4.35;2.60;;;11.70;99.90;;;;;;4993241;28;20237;-76
2022/09/21 01:38:37;;;;;;;3.83;2.67;;;11.70;99.90;;;;;;4990087;28;20038;-76
2022/09/21 01:41:10;;;;;;;3.63;2.35;;;11.60;99.90;;;;;;5001495;28;20041;-77
2022/09/21 01:43:41;;;;;;;4.75;2.22;;;11.70;99.90;;;;;;4993619;28;20193;-77
2022/09/21 01:46:14;;;;;;;3.78;2.22;;;11.60;99.90;;;;;;4993548;28;20038;-77
2022/09/21 01:48:43;;;;;;;4.32;2.75;;;11.60;99.90;;;;;;4992864;28;20037;-77
2022/09/21 01:51:11;;;;;;;3.83;2.33;;;11.70;99.90;;;;;;4993479;28;20041;-77
2022/09/21 01:53:51;;;;;;;3.70;2.33;;;11.70;99.90;;;;;;4992359;28;20027;-77
2022/09/21 01:56:24;;;;;;;4.60;2.35;;;11.60;99.90;;;;;;4979167;28;20035;-76
2022/09/21 01:59:11;;;;;;;3.53;2.60;;;11.60;99.90;;;;;;5008295;28;20030;-76
2022/09/21 02:01:46;;;;;;;4.53;3.00;;;11.60;99.90;;;;;;4993256;28;20039;-76
2022/09/21 02:04:13;;;;;;;3.83;2.50;;;11.60;99.90;;;;;;4979421;28;20018;-76
2022/09/21 02:06:42;;;;;;;4.43;2.70;;;11.60;99.90;;;;;;4993602;28;20073;-76
2022/09/21 02:09:09;;;;;;;4.57;2.85;;;11.60;99.90;;;;;;4992636;28;20528;-76
2022/09/21 02:11:37;;;;;;;3.38;2.38;;;11.60;99.90;;;;;;4974028;28;20054;-75
2022/09/21 02:14:08;;;;;;;4.68;2.25;;;11.50;99.90;;;;;;4981329;28;20038;-76
2022/09/21 02:16:40;;;;;;;3.75;2.50;;;11.50;99.90;;;;;;4993013;28;20385;-76
2022/09/21 02:19:13;;;;;;;5.32;2.90;;;11.50;99.90;;;;;;4992071;28;20769;-75
2022/09/21 02:22:02;;;;;;;3.40;2.35;;;11.50;99.90;;;;;;4993138;28;20022;-76
2022/09/21 02:24:42;;;;;;;5.22;2.33;;;11.40;99.90;;;;;;4992397;28;20034;-75
2022/09/21 02:27:30;;;;;;;5.60;2.17;;;11.40;99.90;;;;;;4992576;28;20046;-75
2022/09/21 02:30:08;;;;;;;3.72;2.60;;;11.40;99.90;;;;;;4992241;28;20057;-76
2022/09/21 02:32:45;;;;;;;4.63;2.40;;;11.40;99.90;;;;;;5001422;28;20034;-74
2022/09/21 02:35:35;;;;;;;5.97;2.25;;;11.40;99.90;;;;;;4975281;28;20022;-75
2022/09/21 02:38:07;;;;;;;4.75;2.53;;;11.40;99.90;;;;;;4990848;28;20065;-75
2022/09/21 02:40:52;;;;;;;3.40;2.40;;;11.40;99.90;;;;;;4992478;28;20026;-75
2022/09/21 02:43:43;;;;;;;3.10;2.20;;;11.30;99.90;;;;;;4975621;28;20113;-75
2022/09/21 02:46:15;;;;;;;3.03;2.17;;;11.30;99.90;;;;;;4992378;28;20026;-76
2022/09/21 02:48:50;;;;;;;4.10;2.72;;;11.30;99.90;;;;;;4975953;28;20046;-77
2022/09/21 02:51:39;;;;;;;;;;;11.20;99.90;;;;;;4993253;28;20085;-77
2022/09/21 02:54:08;;;;;;;4.38;2.40;;;11.30;99.90;;;;;;4982773;28;20000;-77
2022/09/21 02:56:35;;;;;;;3.25;2.30;;;11.20;99.90;;;;;;5000990;28;20033;-76
2022/09/21 02:59:04;;;;;;;3.95;2.58;;;11.20;99.90;;;;;;4999875;28;20050;-77
2022/09/21 03:01:31;;;;;;;7.10;2.40;;;11.20;99.90;;;;;;4992259;28;20080;-77
2022/09/21 03:03:56;;;;;;;3.80;2.20;;;11.20;99.90;;;;;;4992124;28;20544;-76
2022/09/21 03:06:22;;;;;;;3.53;2.17;;;11.20;99.90;;;;;;4974607;28;20042;-76
2022/09/21 03:08:50;;;;;;;3.80;2.35;;;11.20;99.90;;;;;;4995397;28;20068;-77
2022/09/21 03:11:17;;;;;;;6.25;2.53;;;11.20;99.90;;;;;;4996194;28;20062;-77
2022/09/21 03:13:43;;;;;;;3.72;2.45;;;11.20;99.90;;;;;;4996422;28;20030;-77
2022/09/21 03:16:09;;;;;;;4.72;2.50;;;11.20;99.90;;;;;;4996082;28;20038;-77
2022/09/21 03:18:35;;;;;;;3.70;2.13;;;11.20;99.90;;;;;;4977759;28;20088;-77
2022/09/21 03:21:01;;;;;;;3.88;2.55;;;11.30;99.90;;;;;;4995227;28;20109;-77
2022/09/21 03:23:28;;;;;;;4.72;2.40;;;11.20;99.90;;;;;;4995097;28;20045;-77
2022/09/21 03:25:54;;;;;;;3.42;2.30;;;11.20;99.90;;;;;;4995590;28;20029;-77
2022/09/21 03:28:21;;;;;;;3.67;2.20;;;11.30;99.90;;;;;;4977728;28;20046;-77
2022/09/21 03:30:50;;;;;;;6.45;2.30;;;11.20;99.90;;;;;;4978252;28;20037;-77
2022/09/21 03:33:18;;;;;;;4.10;2.30;;;11.30;99.90;;;;;;4995858;28;20035;-76
2022/09/21 03:35:43;;;;;;;4.43;2.50;;;11.30;99.90;;;;;;4995324;28;20023;-76
2022/09/21 03:38:09;;;;;;;4.30;2.50;;;11.30;99.90;;;;;;4995316;28;20037;-77
2022/09/21 03:40:35;;;;;;;3.55;2.33;;;11.30;99.90;;;;;;5006333;28;20069;-76
2022/09/21 03:43:00;;;;;;;4.15;2.40;;;11.30;99.90;;;;;;4995633;28;20027;-76
2022/09/21 03:45:26;;;;;;;3.58;2.55;;;11.30;99.90;;;;;;4995940;28;20034;-77
2022/09/21 03:47:59;;;;;;;3.63;2.47;;;11.30;99.90;;;;;;4995696;28;20029;-78
2022/09/21 03:50:29;;;;;;;4.53;2.40;;;11.30;99.90;;;;;;4995956;28;20034;-76
2022/09/21 03:52:55;;;;;;;5.68;2.63;;;11.30;99.90;;;;;;4995409;28;20022;-76
2022/09/21 03:55:21;;;;;;;5.07;2.60;;;11.30;99.90;;;;;;4978528;28;20363;-76
2022/09/21 03:57:48;;;;;;;3.15;2.30;;;11.30;99.90;;;;;;4999398;28;20041;-76
2022/09/21 04:00:14;;;;;;;4.13;2.72;;;11.30;99.90;;;;;;4977175;28;20041;-77
2022/09/21 04:02:41;;;;;;;4.43;2.38;;;11.30;99.90;;;;;;4990733;28;20023;-77
2022/09/21 04:05:13;;;;;;;3.92;2.35;;;11.30;99.90;;;;;;4977158;28;20022;-76
2022/09/21 04:07:40;;;;;;;3.17;2.45;;;11.30;99.90;;;;;;4995517;28;20037;-76
2022/09/21 04:10:07;;;;;;;7.22;3.22;;;11.20;99.90;;;;;;4994703;28;20054;-76
2022/09/21 04:12:33;;;;;;;5.28;2.88;;;11.20;99.90;;;;;;4995825;28;20030;-77
2022/09/21 04:15:06;;;;;;;3.40;2.22;;;11.20;99.90;;;;;;4994493;28;20121;-77
2022/09/21 04:17:32;;;;;;;3.75;2.78;;;11.20;99.90;;;;;;4995145;28;20038;-77
2022/09/21 04:19:58;;;;;;;4.95;2.70;;;11.20;99.90;;;;;;4992470;28;20737;-77
2022/09/21 04:22:24;;;;;;;4.50;2.30;;;11.20;99.90;;;;;;4995010;28;20073;-77
2022/09/21 04:24:50;;;;;;;3.63;2.42;;;11.30;99.90;;;;;;4994468;28;20036;-76
2022/09/21 04:27:17;;;;;;;4.63;2.50;;;11.30;99.90;;;;;;4994539;28;20066;-77
2022/09/21 04:29:43;;;;;;;4.55;2.92;;;11.30;99.90;;;;;;4997832;28;20384;-77
2022/09/21 04:32:09;;;;;;;4.85;2.72;;;11.30;99.90;;;;;;4997720;28;20113;-77
2022/09/21 04:34:38;;;;;;;4.00;2.60;;;11.30;99.90;;;;;;4993936;28;20030;-77
2022/09/21 04:37:07;;;;;;;5.13;2.60;;;11.30;99.90;;;;;;4994912;28;20109;-77
2022/09/21 04:39:34;;;;;;;5.07;2.88;;;11.30;99.90;;;;;;4994301;28;20065;-77
2022/09/21 04:42:00;;;;;;;5.32;2.80;;;11.20;99.90;;;;;;4994797;28;20069;-77
2022/09/21 04:44:26;;;;;;;4.18;3.00;;;11.20;99.90;;;;;;4993758;28;20034;-76
2022/09/21 04:46:55;;;;;;;4.70;2.92;;;11.20;99.90;;;;;;5000683;28;20040;-77
2022/09/21 04:49:21;;;;;;;3.53;2.78;;;11.20;99.90;;;;;;4995029;28;20034;-77
2022/09/21 04:51:46;;;;;;;5.53;3.00;;;11.10;99.90;;;;;;4994101;28;20091;-77
2022/09/21 04:54:12;;;;;;;5.55;2.90;;;11.10;99.90;;;;;;4994063;28;20057;-78
2022/09/21 04:56:38;;;;;;;4.47;2.67;;;11.10;99.90;;;;;;4994844;28;20038;-77
2022/09/21 04:59:03;;;;;;;6.00;3.00;;;11.10;99.90;;;;;;4993943;28;20096;-77
2022/09/21 05:01:29;;;;;;;4.65;2.60;;;11.10;99.90;;;;;;4993845;28;20633;-76
2022/09/21 05:04:00;;;;;;;4.43;2.70;;;11.10;99.90;;;;;;4994026;28;20038;-76
2022/09/21 05:06:28;;;;;;;4.45;2.75;;;11.10;99.90;;;;;;4994548;28;20023;-77
2022/09/21 05:11:40;;;;;;;6.28;3.30;;;11.10;99.90;;;;;;4994047;28;20516;-77
2022/09/21 05:14:06;;;;;;;6.68;3.83;;;11.10;99.90;;;;;;4993657;28;20038;-77
2022/09/21 05:16:32;;;;;;;9.38;3.90;;;11.10;99.90;;;;;;4993877;28;20030;-75
2022/09/21 05:18:57;;;;;;;6.55;3.28;;;11.10;99.90;;;;;;4995689;28;20037;-76
2022/09/21 05:21:23;;;;;;;5.10;3.45;;;11.10;99.90;;;;;;5000098;28;20026;-77
2022/09/21 05:23:50;;;;;;;5.13;3.42;;;11.10;99.90;;;;;;4993612;28;20027;-77
2022/09/21 05:26:16;;;;;;;4.20;3.03;;;11.10;99.90;;;;;;4994877;28;20065;-78
2022/09/21 05:28:42;;;;;;;6.88;3.65;;;11.10;99.90;;;;;;4993173;28;20077;-77
2022/09/21 05:31:16;;;;;;;5.78;3.38;;;11.10;99.90;;;;;;4992786;28;20026;-77
2022/09/21 05:33:49;;;;;;;4.85;2.88;;;11.10;99.90;;;;;;4992247;28;20050;-78
2022/09/21 05:36:21;;;;;;;6.68;3.15;;;11.10;99.90;;;;;;4988368;28;20584;-78
2022/09/21 05:38:47;;;;;;;4.13;2.80;;;11.20;99.90;;;;;;4976255;28;20076;-78
2022/09/21 05:41:13;;;;;;;6.43;3.05;;;11.10;99.90;;;;;;4993961;28;20431;-78
2022/09/21 05:43:39;;;;;;;3.90;2.83;;;11.20;99.90;;;;;;4993148;28;20485;-78
2022/09/21 05:46:24;;;;;;;6.68;3.28;;;11.20;99.90;;;;;;4992610;28;20026;-77
2022/09/21 05:49:01;;;;;;;6.25;3.47;;;11.30;99.90;;;;;;4993422;28;20049;-77
2022/09/21 05:51:43;;;;;;;6.25;2.90;;;11.30;99.90;;;;;;4992508;28;20478;-74
2022/09/21 05:54:44;;;;;;;9.82;4.18;;;11.30;99.90;;;;;;4993367;28;20038;-73
2022/09/21 05:57:35;;;;;;;4.70;3.10;;;11.30;99.90;;;;;;4980164;28;20113;-75
2022/09/21 06:00:20;;;;;;;5.38;3.47;;;11.40;99.90;;;;;;4967022;28;20042;-72
2022/09/21 06:03:17;;;;;;;6.20;3.80;;;11.50;99.90;;;;;;4992169;28;20023;-71
2022/09/21 06:05:44;;;;;;;4.43;3.10;;;11.60;99.90;;;;;;4988732;28;20101;-72
2022/09/21 06:08:09;;;;;;;11.02;3.97;;;11.70;99.90;;;;;;4992015;28;20030;-72
2022/09/21 06:10:35;;;;;;;7.57;3.53;;;11.70;99.90;;;;;;4975317;28;20034;-71
2022/09/21 06:13:01;;;;;;;4.85;3.50;;;11.80;99.90;;;;;;4983587;28;20085;-72
2022/09/21 06:15:27;;;;;;;6.68;3.50;;;11.80;99.90;;;;;;4991287;28;20389;-72
2022/09/21 06:17:57;;;;;;;7.40;3.55;;;11.90;99.90;;;;;;4992643;28;20026;-72
2022/09/21 06:20:23;;;;;;;10.85;3.70;;;12.00;99.90;;;;;;4974623;28;20048;-73
2022/09/21 06:22:49;;;;;;;5.05;3.55;;;12.00;99.90;;;;;;4992696;28;20030;-72
2022/09/21 06:25:15;;;;;;;6.70;3.97;;;12.10;99.90;;;;;;4988896;28;20037;-72
2022/09/21 06:27:40;;;;;;;6.40;3.65;;;12.10;99.90;;;;;;4990678;28;20122;-72
2022/09/21 06:30:06;;;;;;;6.03;3.78;;;12.20;99.90;;;;;;4990359;28;20165;-76
2022/09/21 06:32:32;;;;;;;9.48;4.30;;;12.30;99.90;;;;;;4976174;28;20041;-70
2022/09/21 06:34:58;;;;;;;7.53;3.33;;;12.30;99.90;;;;;;4988768;28;20038;-71
2022/09/21 06:37:23;;;;;;;9.30;4.20;;;12.40;99.90;;;;;;4992292;28;20023;-71
2022/09/21 06:39:49;;;;;;;6.07;4.40;;;12.50;99.90;;;;;;4991729;28;20057;-71
2022/09/21 06:42:15;;;;;;;8.80;4.57;;;12.60;99.90;;;;;;4989577;28;20101;-71
2022/09/21 06:44:40;;;;;;;5.65;4.25;;;12.60;99.90;;;;;;4989505;28;20108;-70
2022/09/21 06:47:06;;;;;;;6.97;4.50;;;12.70;99.90;;;;;;4990219;28;20022;-70
2022/09/21 06:49:31;;;;;;;8.10;4.40;;;12.80;99.90;;;;;;4979924;28;20042;-71
2022/09/21 06:51:57;;;;;;;9.32;4.57;;;12.90;99.90;;;;;;4990951;28;20033;-70
2022/09/21 06:54:23;;;;;;;9.10;4.50;;;13.00;99.90;;;;;;4991397;28;20050;-70
2022/09/21 06:56:49;;;;;;;6.40;4.13;;;13.00;99.90;;;;;;4992229;28;20494;-70
2022/09/21 06:59:14;;;;;;;8.88;4.45;;;13.10;99.90;;;;;;4988683;28;20041;-70
2022/09/21 07:01:40;;;;;;;8.00;4.13;;;13.20;99.90;;;;;;4991604;28;20022;-70
2022/09/21 07:04:08;;;;;;;7.78;4.25;;;13.30;99.90;;;;;;4994682;28;20026;-71
2022/09/21 07:06:34;;;;;;;7.38;4.15;;;13.40;99.90;;;;;;4990915;28;20453;-70
2022/09/21 07:09:02;;;;;;;7.72;3.90;;;13.40;99.90;;;;;;4991561;28;20702;-70
2022/09/21 07:11:27;;;;;;;6.75;3.75;;;13.40;99.90;;;;;;4990863;28;20073;-70
2022/09/21 07:13:54;;;;;;;9.05;3.72;;;13.50;99.90;;;;;;4991284;28;20031;-71
2022/09/21 07:16:20;;;;;;;9.25;4.18;;;13.50;99.90;;;;;;4989838;28;20105;-71
2022/09/21 07:18:48;;;;;;;10.73;4.32;;;13.50;99.90;;;;;;4961430;28;20529;-72
2022/09/21 07:21:13;;;;;;;6.80;3.65;;;13.60;99.90;;;;;;4992453;28;20579;-71
2022/09/21 07:23:39;;;;;;;7.75;3.30;;;13.60;99.90;;;;;;4991673;28;20022;-70
2022/09/21 07:26:10;;;;;;;7.55;4.30;;;13.70;99.90;;;;;;4990874;28;20022;-71
2022/09/21 07:28:37;;;;;;;5.28;3.60;;;13.70;99.90;;;;;;4991453;28;20724;-71
2022/09/21 07:31:14;;;;;;;6.53;3.88;;;13.80;99.90;;;;;;4973711;28;20026;-70
2022/09/21 07:33:42;;;;;;;7.28;4.20;;;13.90;99.90;;;;;;4991465;28;20031;-69
2022/09/21 07:36:11;;;;;;;9.60;4.32;;;13.90;99.90;;;;;;4973435;28;20099;-70
2022/09/21 07:38:38;;;;;;;8.20;4.72;;;14.00;99.90;;;;;;4997792;28;20445;-70
2022/09/21 07:41:09;;;;;;;9.57;4.53;;;14.10;99.90;;;;;;4991873;28;20030;-70
2022/09/21 07:43:38;;;;;;;6.63;4.13;;;14.20;99.90;;;;;;4992367;28;20058;-69
2022/09/21 07:46:04;;;;;;;8.38;4.40;;;14.30;99.90;;;;;;4991677;28;20030;-70
2022/09/21 07:48:30;;;;;;;7.72;4.97;;;14.30;99.90;;;;;;4991608;28;20121;-69
2022/09/21 07:51:06;;;;;;;6.03;4.57;;;14.40;99.90;;;;;;4992212;28;20597;-69
2022/09/21 07:53:33;;;;;;;8.32;4.40;;;14.50;99.90;;;;;;4976117;28;20121;-70
2022/09/21 07:56:04;;;;;;;6.63;4.43;;;14.50;99.90;;;;;;4995855;28;20026;-70
2022/09/21 08:01:15;;;;;;;6.90;4.50;;;14.60;99.90;;;;;;4995770;28;20515;-69
2022/09/21 08:03:41;;;;;;;6.30;4.13;;;14.60;99.90;;;;;;4995115;28;20092;-71
2022/09/21 08:06:08;;;;;;;6.50;4.35;;;14.60;99.90;;;;;;4995566;28;20026;-70
2022/09/21 08:08:34;;;;;;;7.70;5.65;;;14.70;99.90;;;;;;4994628;28;20030;-71
2022/09/21 08:11:05;;;;;;;12.65;4.80;;;14.70;99.90;;;;;;5001513;28;20032;-71
2022/09/21 08:13:30;;;;;;;11.82;5.95;;;14.80;99.90;;;;;;5002127;28;20026;-70
2022/09/21 08:16:01;;;;;;;10.10;5.35;;;14.80;99.90;;;;;;4994339;28;20034;-72
2022/09/21 08:18:27;;;;;;;8.73;5.40;;;14.80;99.90;;;;;;4991776;28;20512;-71
2022/09/21 08:20:58;;;;;;;7.13;5.57;;;14.90;99.90;;;;;;4994802;28;20030;-71
2022/09/21 08:23:27;;;;;;;12.80;4.93;;;15.00;99.90;;;;;;4994334;28;20604;-77
2022/09/21 08:26:05;;;;;;;10.98;5.30;;;15.20;99.90;;;;;;4987214;28;20042;-74
2022/09/21 08:28:31;;;;;;;12.00;5.32;;;15.30;99.90;;;;;;4977126;28;20049;-74
2022/09/21 08:31:03;;;;;;;7.05;4.60;;;15.30;99.90;;;;;;4994364;28;20389;-73
2022/09/21 08:33:29;;;;;;;9.10;5.28;;;15.40;99.80;;;;;;4993030;28;20027;-73
2022/09/21 08:35:57;;;;;;;6.47;4.70;;;15.50;99.70;;;;;;4990604;28;20082;-74
2022/09/21 08:38:23;;;;;;;7.60;4.30;;;15.50;99.70;;;;;;4993842;28;20210;-73
2022/09/21 08:40:51;;;;;;;8.15;4.10;;;15.50;99.40;;;;;;4993880;28;20026;-72
2022/09/21 08:43:28;;;;;;;6.70;4.57;;;15.50;99.50;;;;;;4995071;28;20034;-73
2022/09/21 08:45:57;;;;;;;7.47;4.25;;;15.60;99.40;;;;;;4995954;28;20033;-74
2022/09/21 08:48:27;;;;;;;13.73;5.22;;;15.70;99.30;;;;;;4994453;28;20482;-73
2022/09/21 08:50:56;;;;;;;10.95;4.50;;;15.80;99.20;;;;;;4993777;28;20035;-74
2022/09/21 08:53:30;;;;;;;8.35;4.28;;;15.80;99.10;;;;;;4979951;28;20089;-74
2022/09/21 08:55:57;;;;;;;9.13;4.50;;;15.90;98.90;;;;;;4993529;28;20046;-74
2022/09/21 08:58:27;;;;;;;7.78;4.15;;;16.00;98.90;;;;;;4993443;28;20065;-75
2022/09/21 09:01:13;;;;;;;6.68;4.32;;;16.10;98.80;;;;;;4992853;28;20027;-74
2022/09/21 09:03:45;;;;;;;5.78;4.22;;;16.10;98.70;;;;;;4996099;28;20035;-76
2022/09/21 09:06:21;;;;;;;7.00;4.07;;;16.20;98.80;;;;;;4993477;28;20034;-70
2022/09/21 09:09:08;;;;;;;7.20;4.28;;;16.20;98.70;;;;;;4985926;28;20037;-72
2022/09/21 09:12:09;;;;;;;8.48;4.57;;;16.30;98.70;;;;;;4993797;28;20057;-77
2022/09/21 09:14:46;;;;;;;7.57;4.05;;;16.30;98.70;;;;;;4993554;28;20030;-77
2022/09/21 09:17:29;;;;;;;14.02;5.22;;;16.40;98.70;;;;;;4992801;28;20018;-77
2022/09/21 09:20:05;;;;;;;7.88;3.97;;;16.40;98.70;;;;;;4993087;28;20046;-77
2022/09/21 09:22:39;;;;;;;12.77;4.85;;;16.50;98.50;;;;;;4976015;28;20070;-76
2022/09/21 09:25:15;;;;;;;10.45;4.28;;;16.50;98.20;;;;;;4994658;28;20371;-76
2022/09/21 09:27:43;;;;;;;6.78;3.92;;;16.50;98.00;;;;;;4995324;28;20125;-76
2022/09/21 09:30:29;;;;;;;10.57;4.88;;;16.40;98.10;;;;;;4992981;28;20385;-75
2022/09/21 09:33:05;;;;;;;6.28;4.60;;;16.40;98.00;;;;;;4994082;28;20027;-74
2022/09/21 09:35:44;;;;;;;7.78;4.10;;;16.40;97.80;;;;;;4994488;28;20034;-75
2022/09/21 09:38:27;;;;;;;6.43;4.05;;;16.30;97.90;;;;;;4994559;28;20038;-74
2022/09/21 09:41:08;;;;;;;6.45;4.07;;;16.30;97.90;;;;;;4996041;28;20031;-75
2022/09/21 09:43:48;;;;;;;8.15;4.10;;;16.30;98.00;;;;;;4994134;28;20037;-76
2022/09/21 09:46:33;;;;;;;6.38;3.47;;;16.30;98.00;;;;;;4994233;28;20030;-75
2022/09/21 09:49:21;;;;;;;6.15;3.95;;;16.30;98.10;;;;;;4993653;28;20030;-76
2022/09/21 09:51:47;;;;;;;5.57;3.30;;;16.30;98.10;;;;;;4995470;28;20138;-75
2022/09/21 09:54:15;;;;;;;13.43;3.03;;;16.30;98.00;;;;;;5001734;28;20026;-75
2022/09/21 09:56:41;;;;;;;4.50;2.63;;;16.20;97.90;;;;;;4995380;28;20113;-75
2022/09/21 09:59:23;;;;;;;4.68;2.92;;;16.20;97.60;;;;;;4997030;28;20073;-75
2022/09/21 10:02:10;;;;;;;7.18;2.40;;;16.10;97.80;;;;;;4998474;28;20026;-75
2022/09/21 10:04:36;;;;;;;5.68;2.92;;;16.20;97.80;;;;;;5000547;28;20061;-75
2022/09/21 10:07:02;;;;;;;5.70;4.10;;;16.10;97.90;;;;;;5006142;28;20374;-76
2022/09/21 10:09:29;;;;;;;6.20;3.33;;;16.20;97.80;;;;;;5011374;28;20030;-75
2022/09/21 10:11:59;;;;;;;4.70;3.00;;;16.20;97.90;;;;;;5026503;28;20030;-75
2022/09/21 10:14:28;;;;;;;6.35;3.25;;;16.20;98.00;;;;;;5021866;28;20030;-74
2022/09/21 10:16:55;;;;;;;3.97;2.20;;;16.20;98.00;;;;;;5021244;28;20061;-76
2022/09/21 10:19:24;;;;;;;8.38;2.60;;;16.30;97.90;;;;;;5019527;28;20473;-75
2022/09/21 10:21:56;;;;;;;5.65;3.25;;;16.30;97.70;;;;;;5021375;28;20030;-74
2022/09/21 10:24:32;;;;;;;4.10;2.70;;;16.30;97.80;;;;;;5003534;28;20389;-74
2022/09/21 10:27:13;;;;;;;4.20;1.98;;;16.40;97.80;;;;;;5019838;28;20034;-75
2022/09/21 10:29:47;;;;;;;2.70;1.73;;;16.40;97.30;;;;;;5026451;28;20030;-74
2022/09/21 10:32:12;;;;;;;5.57;2.07;;;16.40;97.20;;;;;;5008984;28;20499;-75
2022/09/21 10:34:40;;;;;;;4.03;1.80;;;16.50;97.20;;;;;;5018501;28;20103;-75
2022/09/21 10:37:33;;;;;;;3.53;1.80;;;16.50;97.10;;;;;;5010527;28;20073;-75
2022/09/21 10:39:59;;;;;;;3.70;1.73;;;16.60;97.10;;;;;;4986566;28;20050;-74
2022/09/21 10:42:26;;;;;;;2.20;1.20;;;16.70;97.20;;;;;;4992963;28;20113;-75
2022/09/21 10:45:03;;;;;;;1.80;1.48;;;16.70;96.60;;;;;;4990828;28;20030;-75
2022/09/21 10:47:39;;;;;;;4.32;1.33;;;16.80;96.50;;;;;;4992896;28;20619;-73
2022/09/21 10:50:20;;;;;;;2.13;1.50;;;16.80;95.60;;;;;;4994439;28;20058;-75
2022/09/21 10:52:46;;;;;;;1.67;1.10;;;16.90;95.30;;;;;;4992954;28;20031;-75
2022/09/21 10:55:18;;;;;;;1.77;1.13;;;17.00;95.40;;;;;;4992677;28;20018;-75
2022/09/21 10:57:45;;;;;;;2.45;1.33;;;17.10;95.40;;;;;;4992398;28;20374;-75
2022/09/21 11:00:20;;;;;;;2.30;1.55;;;17.30;95.30;;;;;;4992885;28;20030;-74
2022/09/21 11:02:47;;;;;;;1.85;1.02;;;17.40;95.20;;;;;;4990918;28;20030;-75
2022/09/21 11:05:18;;;;;;;3.72;1.40;;;17.50;94.70;;;;;;5012260;28;20128;-75
2022/09/21 11:07:52;;;;;;;1.85;1.10;;;17.60;94.40;;;;;;5012383;28;20512;-75
2022/09/21 11:10:28;;;;;;;1.80;0.93;;;17.70;94.50;;;;;;5012177;28;20030;-76
2022/09/21 11:13:22;;;;;;;2.47;1.13;;;17.70;93.80;;;;;;5012114;28;20026;-76
2022/09/21 11:15:59;;;;;;;2.03;1.20;;;17.80;93.60;;;;;;5011967;28;20052;-76
2022/09/21 11:18:38;;;;;;;1.73;1.20;;;17.80;93.20;;;;;;5002067;28;20031;-76
2022/09/21 11:21:14;;;;;;;2.65;1.40;;;17.80;93.30;;;;;;4992636;28;20109;-76
2022/09/21 11:23:42;;;;;;;5.47;1.45;;;17.80;93.30;;;;;;4992342;28;20026;-75
2022/09/21 11:26:23;;;;;;;4.13;1.35;;;17.80;93.00;;;;;;4992447;28;20062;-76
2022/09/21 11:29:07;;;;;;;3.78;1.33;;;17.70;92.90;;;;;;4993027;28;20045;-75
2022/09/21 11:32:03;;;;;;;2.90;1.13;;;17.70;92.90;;;;;;4996425;28;20446;-75
2022/09/21 11:34:46;;;;;;;2.72;1.23;;;17.70;92.90;;;;;;4979034;28;20040;-75
2022/09/21 11:37:39;;;;;;;7.35;2.80;;;17.70;93.00;;;;;;4989473;28;20106;-75
2022/09/21 11:40:29;;;;;;;8.02;2.40;;;17.90;93.00;;;;;;4979772;28;20089;-76
2022/09/21 11:43:29;;;;;;;4.28;1.60;;;18.10;92.90;;;;;;4976143;28;20030;-76
2022/09/21 11:46:14;;;;;;;1.75;1.10;;;18.30;92.30;;;;;;4990625;28;20030;-76
2022/09/21 11:48:51;;;;;;;35.25;2.80;;;18.20;92.20;;;;;;4978026;28;20030;-79
2022/09/21 11:51:37;;;;;;;2.80;1.15;;;18.20;92.40;;;;;;4996377;28;20130;-74
2022/09/21 11:54:51;;;;;;;5.43;1.20;;;18.20;92.50;;;;;;4993119;28;20034;-75
2022/09/21 11:57:27;;;;;;;1.60;0.95;;;18.30;92.40;;;;;;4995085;28;20026;-75
2022/09/21 12:00:14;;;;;;;3.85;1.73;;;18.40;92.50;;;;;;4995473;28;20042;-75
2022/09/21 12:02:55;;;;;;;1.80;1.15;;;18.40;92.40;;;;;;4994802;28;20031;-75
2022/09/21 12:05:37;;;;;;;3.80;1.38;;;18.50;92.00;;;;;;4995175;28;20035;-73
2022/09/21 12:08:41;;;;;;;2.28;1.20;;;18.50;91.70;;;;;;4994527;28;20044;-74
2022/09/21 12:11:44;;;;;;;2.38;1.25;;;18.50;91.70;;;;;;4976185;28;20125;-72
2022/09/21 12:14:22;;;;;;;2.78;1.42;;;18.40;91.20;;;;;;4993340;28;20032;-76
2022/09/21 12:16:59;;;;;;;3.90;1.75;;;18.30;91.60;;;;;;4986035;28;20042;-77
2022/09/21 12:19:37;;;;;;;3.90;1.40;;;18.30;91.60;;;;;;4989375;28;20034;-76
2022/09/21 12:22:08;;;;;;;2.10;1.30;;;18.20;91.80;;;;;;4994668;28;20019;-77
2022/09/21 12:24:53;;;;;;;3.78;1.20;;;18.20;91.80;;;;;;4995518;28;20034;-78
2022/09/21 12:27:42;;;;;;;3.33;1.10;;;18.20;91.90;;;;;;4964439;28;20493;-76
2022/09/21 12:30:18;;;;;;;3.17;1.90;;;18.20;92.00;;;;;;4997461;28;20073;-77
2022/09/21 12:33:04;;;;;;;2.90;1.50;;;18.10;91.90;;;;;;4994058;28;20097;-77
2022/09/21 12:35:46;;;;;;;2.53;1.40;;;18.10;92.10;;;;;;4994520;28;20034;-77
2022/09/21 12:38:36;;;;;;;1.95;1.35;;;18.00;91.80;;;;;;4995051;28;20564;-78
2022/09/21 12:41:27;;;;;;;2.00;1.15;;;18.00;91.70;;;;;;4986489;28;20073;-78
2022/09/21 12:44:21;;;;;;;3.78;1.60;;;17.90;91.30;;;;;;4990054;28;20033;-77
2022/09/21 12:47:08;;;;;;;2.10;1.00;;;18.00;91.50;;;;;;4994297;28;20034;-77
2022/09/21 12:49:40;;;;;;;2.45;1.00;;;18.00;91.00;;;;;;4993359;28;20596;-77
2022/09/21 12:52:07;;;;;;;3.03;1.23;;;18.00;91.10;;;;;;4994781;28;20027;-78
2022/09/21 12:54:49;;;;;;;1.83;1.20;;;18.00;90.90;;;;;;4992980;28;20038;-77
2022/09/21 12:57:47;;;;;;;2.50;1.30;;;18.00;91.30;;;;;;4990855;28;20110;-78
2022/09/21 13:00:17;;;;;;;1.77;1.23;;;18.00;91.40;;;;;;4981506;28;20052;-77
2022/09/21 13:03:06;;;;;;;2.60;1.67;;;18.00;91.40;;;;;;5002330;28;20057;-76
2022/09/21 13:06:11;;;;;;;3.40;1.20;;;18.00;91.60;;;;;;4994544;28;20069;-77
2022/09/21 13:08:47;;;;;;;3.45;1.27;;;18.20;91.70;;;;;;4962077;28;20049;-77
2022/09/21 13:11:19;;;;;;;3.63;1.25;;;18.20;91.40;;;;;;4993118;28;20595;-76
2022/09/21 13:13:51;;;;;;;1.63;1.20;;;18.30;91.30;;;;;;4994235;28;20054;-77
2022/09/21 13:16:33;;;;;;;3.85;1.50;;;18.30;91.30;;;;;;4977000;28;20120;-76
2022/09/21 13:19:14;;;;;;;3.30;1.42;;;18.30;91.30;;;;;;4993369;28;20052;-76
2022/09/21 13:21:43;;;;;;;2.50;1.40;;;18.30;90.90;;;;;;4989327;28;20444;-76